createdAt,value
2018-09-05T00:01:26.451Z,98.80
2018-09-05T00:03:54.873Z,99.00
2018-09-05T00:06:23.477Z,99.20
2018-09-05T00:08:51.910Z,99.90
2018-09-05T00:11:20.284Z,99.90
2018-09-05T00:13:48.753Z,99.90
2018-09-05T00:16:17.519Z,99.90
2018-09-05T00:18:45.830Z,99.90
2018-09-05T00:21:14.239Z,99.90
2018-09-05T00:23:42.600Z,99.90
2018-09-05T00:26:11.046Z,99.90
2018-09-05T00:28:39.829Z,99.90
2018-09-05T00:31:10.539Z,99.90
2018-09-05T00:33:39.330Z,99.90
2018-09-05T00:36:08.329Z,99.90
2018-09-05T00:38:36.730Z,99.90
2018-09-05T00:41:05.179Z,99.90
2018-09-05T00:43:33.536Z,99.90
2018-09-05T00:46:01.868Z,99.90
2018-09-05T00:48:30.233Z,99.90
2018-09-05T00:50:58.721Z,99.90
2018-09-05T00:53:27.119Z,99.90
2018-09-05T00:55:55.438Z,99.90
2018-09-05T00:58:23.773Z,99.90
2018-09-05T01:00:52.193Z,99.90
2018-09-05T01:03:20.685Z,99.90
2018-09-05T01:05:49.107Z,99.90
2018-09-05T01:08:17.490Z,99.90
2018-09-05T01:10:45.930Z,99.90
2018-09-05T01:13:14.306Z,99.90
2018-09-05T01:15:42.690Z,99.90
2018-09-05T01:18:11.105Z,99.90
2018-09-05T01:20:39.535Z,99.90
2018-09-05T01:23:07.891Z,99.90
2018-09-05T01:25:36.295Z,99.90
2018-09-05T01:28:05.133Z,99.90
2018-09-05T01:30:33.843Z,99.90
2018-09-05T01:33:02.570Z,99.90
2018-09-05T01:35:31.068Z,99.90
2018-09-05T01:37:59.431Z,99.90
2018-09-05T01:40:27.777Z,99.90
2018-09-05T01:42:56.283Z,99.90
2018-09-05T01:45:24.673Z,99.90
2018-09-05T01:47:53.092Z,99.90
2018-09-05T01:50:52.360Z,99.90
2018-09-05T01:53:20.787Z,99.90
2018-09-05T01:55:49.180Z,99.90
2018-09-05T01:58:17.855Z,99.90
2018-09-05T02:00:46.298Z,99.90
2018-09-05T02:03:15.676Z,99.90
2018-09-05T02:05:44.064Z,99.90
2018-09-05T02:08:12.434Z,99.90
2018-09-05T02:10:40.811Z,99.90
2018-09-05T02:13:09.133Z,99.90
2018-09-05T02:15:37.553Z,99.90
2018-09-05T02:18:05.948Z,99.90
2018-09-05T02:20:34.363Z,99.90
2018-09-05T02:23:02.757Z,99.90
2018-09-05T02:25:31.429Z,99.90
2018-09-05T02:27:59.905Z,99.90
2018-09-05T02:30:28.282Z,99.90
2018-09-05T02:32:57.083Z,99.90
2018-09-05T02:35:25.623Z,99.90
2018-09-05T02:37:54.030Z,99.90
2018-09-05T02:40:22.974Z,99.90
2018-09-05T02:42:51.607Z,99.90
2018-09-05T02:45:20.224Z,99.90
2018-09-05T02:47:48.904Z,99.90
2018-09-05T02:50:17.910Z,99.90
2018-09-05T02:52:46.866Z,99.90
2018-09-05T02:55:20.044Z,99.90
2018-09-05T02:57:49.107Z,99.90
2018-09-05T03:00:18.093Z,99.90
2018-09-05T03:02:47.123Z,99.90
2018-09-05T03:05:16.145Z,99.90
2018-09-05T03:07:45.262Z,99.90
2018-09-05T03:10:14.286Z,99.90
2018-09-05T03:12:42.696Z,99.90
2018-09-05T03:15:11.097Z,99.90
2018-09-05T03:17:39.538Z,99.90
2018-09-05T03:20:07.999Z,99.90
2018-09-05T03:22:36.387Z,99.90
2018-09-05T03:25:05.133Z,99.90
2018-09-05T03:27:33.744Z,99.90
2018-09-05T03:30:02.149Z,99.90
2018-09-05T03:32:30.893Z,99.90
2018-09-05T03:34:59.172Z,99.90
2018-09-05T03:37:27.638Z,99.90
2018-09-05T03:39:56.099Z,99.90
2018-09-05T03:42:24.455Z,99.90
2018-09-05T03:44:52.880Z,99.90
2018-09-05T03:47:21.276Z,99.90
2018-09-05T03:49:49.735Z,99.90
2018-09-05T03:52:18.136Z,99.90
2018-09-05T03:54:46.478Z,99.90
2018-09-05T03:57:14.873Z,99.90
2018-09-05T03:59:43.239Z,99.90
2018-09-05T04:02:11.637Z,99.90
2018-09-05T04:04:40.001Z,99.90
2018-09-05T04:07:08.410Z,99.90
2018-09-05T04:09:36.842Z,99.90
2018-09-05T04:12:05.283Z,99.90
2018-09-05T04:14:33.739Z,99.90
2018-09-05T04:17:02.111Z,99.90
2018-09-05T04:19:30.458Z,99.90
2018-09-05T04:21:58.865Z,99.90
2018-09-05T04:24:27.799Z,99.90
2018-09-05T04:26:56.205Z,99.90
2018-09-05T04:29:24.585Z,99.90
2018-09-05T04:31:52.948Z,99.90
2018-09-05T04:34:21.353Z,99.90
2018-09-05T04:36:49.809Z,99.90
2018-09-05T04:39:18.234Z,99.90
2018-09-05T04:41:46.667Z,99.90
2018-09-05T04:44:15.622Z,99.90
2018-09-05T04:46:44.000Z,99.90
2018-09-05T04:49:12.338Z,99.90
2018-09-05T04:51:40.796Z,99.90
2018-09-05T04:54:09.227Z,99.90
2018-09-05T04:56:37.677Z,99.90
2018-09-05T04:59:06.133Z,99.90
2018-09-05T05:01:34.575Z,99.90
2018-09-05T05:04:03.020Z,99.90
2018-09-05T05:06:31.422Z,99.90
2018-09-05T05:08:59.816Z,99.90
2018-09-05T05:11:28.208Z,99.90
2018-09-05T05:13:56.681Z,99.90
2018-09-05T05:16:25.028Z,99.90
2018-09-05T05:18:53.323Z,99.90
2018-09-05T05:21:21.734Z,99.90
2018-09-05T05:23:50.158Z,99.90
2018-09-05T05:26:18.548Z,99.90
2018-09-05T05:28:46.997Z,99.90
2018-09-05T05:31:15.372Z,99.90
2018-09-05T05:33:43.790Z,99.90
2018-09-05T05:36:12.242Z,99.90
2018-09-05T05:38:40.643Z,99.90
2018-09-05T05:41:09.294Z,99.90
2018-09-05T05:43:37.664Z,99.90
2018-09-05T05:46:06.182Z,99.90
2018-09-05T05:48:34.627Z,99.90
2018-09-05T05:51:02.988Z,99.90
2018-09-05T05:53:31.332Z,99.90
2018-09-05T05:55:59.817Z,99.90
2018-09-05T05:58:28.257Z,99.90
2018-09-05T06:00:56.681Z,99.90
2018-09-05T06:03:25.060Z,99.90
2018-09-05T06:05:53.501Z,99.90
2018-09-05T06:08:21.794Z,99.90
2018-09-05T06:10:50.156Z,99.90
2018-09-05T06:13:18.504Z,99.90
2018-09-05T06:15:46.914Z,99.90
2018-09-05T06:18:15.345Z,99.90
2018-09-05T06:20:43.810Z,99.90
2018-09-05T06:23:12.495Z,99.90
2018-09-05T06:25:41.028Z,99.90
2018-09-05T06:28:09.556Z,99.90
2018-09-05T06:30:38.188Z,99.90
2018-09-05T06:33:06.862Z,99.90
2018-09-05T06:35:35.578Z,99.90
2018-09-05T06:38:04.114Z,99.90
2018-09-05T06:40:32.920Z,99.90
2018-09-05T06:43:02.915Z,99.90
2018-09-05T06:45:31.732Z,99.90
2018-09-05T06:48:00.051Z,99.90
2018-09-05T06:50:28.501Z,99.90
2018-09-05T06:52:56.880Z,99.90
2018-09-05T06:55:25.324Z,99.90
2018-09-05T06:57:54.215Z,99.90
2018-09-05T07:00:22.678Z,99.90
2018-09-05T07:02:51.736Z,99.90
2018-09-05T07:05:20.285Z,99.80
2018-09-05T07:07:48.671Z,99.80
2018-09-05T07:10:17.052Z,99.80
2018-09-05T07:12:45.446Z,99.80
2018-09-05T07:15:13.974Z,99.90
2018-09-05T07:17:42.596Z,99.90
2018-09-05T07:20:11.090Z,99.70
2018-09-05T07:22:39.789Z,99.80
2018-09-05T07:25:08.445Z,99.70
2018-09-05T07:27:36.837Z,99.80
2018-09-05T07:30:05.694Z,99.80
2018-09-05T07:32:34.216Z,99.90
2018-09-05T07:35:02.648Z,99.70
2018-09-05T07:37:31.379Z,99.30
2018-09-05T07:40:00.029Z,99.30
2018-09-05T07:42:28.732Z,99.70
2018-09-05T07:44:57.130Z,99.30
2018-09-05T07:47:25.546Z,99.50
2018-09-05T07:49:53.942Z,99.40
2018-09-05T07:52:22.314Z,99.80
2018-09-05T07:54:51.062Z,99.70
2018-09-05T07:57:19.510Z,99.80
2018-09-05T07:59:47.945Z,99.40
2018-09-05T08:02:16.361Z,99.30
2018-09-05T08:04:45.077Z,99.20
2018-09-05T08:07:15.487Z,99.20
2018-09-05T08:09:44.059Z,98.90
2018-09-05T08:12:12.418Z,98.30
2018-09-05T08:14:40.882Z,97.70
2018-09-05T08:17:09.358Z,98.10
2018-09-05T08:19:37.803Z,98.30
2018-09-05T08:22:06.443Z,98.00
2018-09-05T08:24:35.211Z,98.10
2018-09-05T08:27:03.661Z,97.70
2018-09-05T08:29:33.008Z,97.50
2018-09-05T08:32:01.626Z,97.00
2018-09-05T08:34:30.389Z,96.70
2018-09-05T08:36:59.149Z,96.70
2018-09-05T08:39:27.193Z,96.70
2018-09-05T08:41:55.705Z,96.50
2018-09-05T08:44:24.245Z,96.50
2018-09-05T08:46:52.578Z,96.60
2018-09-05T08:49:20.867Z,96.70
2018-09-05T08:51:49.259Z,96.80
2018-09-05T08:54:17.621Z,97.10
2018-09-05T08:56:45.960Z,96.90
2018-09-05T08:59:14.366Z,96.60
2018-09-05T09:01:42.749Z,96.20
2018-09-05T09:04:11.166Z,96.10
2018-09-05T09:06:39.609Z,96.00
2018-09-05T09:09:09.653Z,96.00
2018-09-05T09:11:38.279Z,96.10
2018-09-05T09:14:06.936Z,96.10
2018-09-05T09:16:35.374Z,96.10
2018-09-05T09:19:03.800Z,96.50
2018-09-05T09:21:32.476Z,96.20
2018-09-05T09:24:01.168Z,97.10
2018-09-05T09:26:29.866Z,97.20
2018-09-05T09:28:58.562Z,97.20
2018-09-05T09:31:26.964Z,97.70
2018-09-05T09:33:56.172Z,97.50
2018-09-05T09:36:24.656Z,97.40
2018-09-05T09:38:53.855Z,97.20
2018-09-05T09:41:22.584Z,97.10
2018-09-05T09:43:50.968Z,97.60
2018-09-05T09:46:19.503Z,97.20
2018-09-05T09:48:47.858Z,96.60
2018-09-05T09:51:16.677Z,97.10
2018-09-05T09:53:45.060Z,96.70
2018-09-05T09:56:13.504Z,97.50
2018-09-05T09:58:42.976Z,97.00
2018-09-05T10:01:16.760Z,97.40
2018-09-05T10:03:50.733Z,97.60
2018-09-05T10:06:20.501Z,97.50
2018-09-05T10:08:54.234Z,97.30
2018-09-05T10:11:28.245Z,97.90
2018-09-05T10:14:16.058Z,98.70
2018-09-05T10:16:50.033Z,98.30
2018-09-05T10:19:18.538Z,97.70
2018-09-05T10:21:46.904Z,97.90
2018-09-05T10:24:16.443Z,97.70
2018-09-05T10:26:44.863Z,97.50
2018-09-05T10:29:13.538Z,97.20
2018-09-05T10:31:41.976Z,97.30
2018-09-05T10:34:10.383Z,97.50
2018-09-05T10:36:38.756Z,97.50
2018-09-05T10:39:08.930Z,97.30
2018-09-05T10:41:37.356Z,98.00
2018-09-05T10:44:05.953Z,97.20
2018-09-05T10:46:34.745Z,97.00
2018-09-05T10:49:03.123Z,97.50
2018-09-05T10:51:36.983Z,96.70
2018-09-05T10:54:05.426Z,96.60
2018-09-05T10:56:33.893Z,96.50
2018-09-05T10:59:02.492Z,96.20
2018-09-05T11:01:30.899Z,96.30
2018-09-05T11:04:00.302Z,96.30
2018-09-05T11:06:28.700Z,95.80
2018-09-05T11:08:57.096Z,95.80
2018-09-05T11:11:25.486Z,95.60
2018-09-05T11:13:53.911Z,95.90
2018-09-05T11:16:22.353Z,95.80
2018-09-05T11:18:50.816Z,96.10
2018-09-05T11:21:19.326Z,96.00
2018-09-05T11:23:48.304Z,95.30
2018-09-05T11:26:19.955Z,95.70
2018-09-05T11:28:48.616Z,95.10
2018-09-05T11:31:17.005Z,95.60
2018-09-05T11:33:45.638Z,95.40
2018-09-05T11:36:14.072Z,94.50
2018-09-05T11:38:42.469Z,93.90
2018-09-05T11:41:11.065Z,93.60
2018-09-05T11:43:39.556Z,93.40
2018-09-05T11:46:08.045Z,92.70
2018-09-05T11:48:36.561Z,92.20
2018-09-05T11:51:05.030Z,91.80
2018-09-05T11:53:34.131Z,91.50
2018-09-05T11:56:02.558Z,91.50
2018-09-05T11:58:30.925Z,91.00
2018-09-05T12:00:59.289Z,91.10
2018-09-05T12:03:27.659Z,90.80
2018-09-05T12:05:56.116Z,91.40
2018-09-05T12:08:24.581Z,91.10
2018-09-05T12:10:54.278Z,90.20
2018-09-05T12:13:22.952Z,89.30
2018-09-05T12:15:51.383Z,89.20
2018-09-05T12:18:19.852Z,88.90
2018-09-05T12:20:48.281Z,86.30
2018-09-05T12:23:17.046Z,89.40
2018-09-05T12:25:45.590Z,89.60
2018-09-05T12:28:13.960Z,87.60
2018-09-05T12:30:42.406Z,88.50
2018-09-05T12:33:11.047Z,87.70
2018-09-05T12:35:39.758Z,86.10
2018-09-05T12:38:08.596Z,85.70
2018-09-05T12:40:37.335Z,86.20
2018-09-05T12:43:05.813Z,85.90
2018-09-05T12:45:34.273Z,89.20
2018-09-05T12:48:02.650Z,90.10
2018-09-05T12:50:31.046Z,87.70
2018-09-05T12:52:59.444Z,89.20
2018-09-05T12:55:28.151Z,85.10
2018-09-05T12:57:56.678Z,86.80
2018-09-05T13:00:25.161Z,87.00
2018-09-05T13:02:53.591Z,86.90
2018-09-05T13:05:22.726Z,87.50
2018-09-05T13:07:51.185Z,86.70
2018-09-05T13:10:19.834Z,86.00
2018-09-05T13:12:48.582Z,86.60
2018-09-05T13:15:17.384Z,87.70
2018-09-05T13:17:47.459Z,86.60
2018-09-05T13:20:16.465Z,86.10
2018-09-05T13:22:46.481Z,85.50
2018-09-05T13:25:15.182Z,85.70
2018-09-05T13:27:43.665Z,85.90
2018-09-05T13:30:12.129Z,85.70
2018-09-05T13:32:40.778Z,87.20
2018-09-05T13:35:10.991Z,85.60
2018-09-05T13:37:39.710Z,87.50
2018-09-05T13:40:08.500Z,88.00
2018-09-05T13:42:37.161Z,89.40
2018-09-05T13:45:05.830Z,88.30
2018-09-05T13:47:34.692Z,89.20
2018-09-05T13:50:03.746Z,89.30
2018-09-05T13:52:32.180Z,88.90
2018-09-05T13:55:00.625Z,87.50
2018-09-05T13:57:29.460Z,85.60
2018-09-05T13:59:57.894Z,87.20
2018-09-05T14:02:26.461Z,88.30
2018-09-05T14:04:54.906Z,86.70
2018-09-05T14:07:23.867Z,85.80
2018-09-05T14:09:52.644Z,87.20
2018-09-05T14:12:21.162Z,86.90
2018-09-05T14:14:49.479Z,86.50
2018-09-05T14:17:17.885Z,85.00
2018-09-05T14:19:46.374Z,85.10
2018-09-05T14:22:14.848Z,87.50
2018-09-05T14:24:43.228Z,87.20
2018-09-05T14:27:11.697Z,87.70
2018-09-05T14:29:40.101Z,87.40
2018-09-05T14:32:08.818Z,86.90
2018-09-05T14:34:37.614Z,87.40
2018-09-05T14:37:06.041Z,86.80
2018-09-05T14:39:34.985Z,86.20
2018-09-05T14:42:03.766Z,85.50
2018-09-05T14:44:32.195Z,86.90
2018-09-05T14:47:00.603Z,88.30
2018-09-05T14:49:30.094Z,87.20
2018-09-05T14:51:58.578Z,86.70
2018-09-05T14:54:27.459Z,89.40
2018-09-05T14:56:56.593Z,87.20
2018-09-05T14:59:24.939Z,87.70
2018-09-05T15:01:53.900Z,88.60
2018-09-05T15:04:22.343Z,88.10
2018-09-05T15:06:50.878Z,88.70
2018-09-05T15:09:19.293Z,87.60
2018-09-05T15:11:47.784Z,88.40
2018-09-05T15:14:16.204Z,87.10
2018-09-05T15:16:44.783Z,87.40
2018-09-05T15:19:13.601Z,87.40
2018-09-05T15:21:42.072Z,87.20
2018-09-05T15:24:10.793Z,88.30
2018-09-05T15:26:39.316Z,87.50
2018-09-05T15:29:07.820Z,88.80
2018-09-05T15:31:36.409Z,89.00
2018-09-05T15:34:04.947Z,89.40
2018-09-05T15:36:34.112Z,89.10
2018-09-05T15:39:02.800Z,88.60
2018-09-05T15:41:31.462Z,87.30
2018-09-05T15:44:00.042Z,87.80
2018-09-05T15:46:28.549Z,88.80
2018-09-05T15:48:57.397Z,88.60
2018-09-05T15:51:25.897Z,89.40
2018-09-05T15:53:54.575Z,89.80
2018-09-05T15:56:22.960Z,89.30
2018-09-05T15:58:51.477Z,89.10
2018-09-05T16:01:19.979Z,89.60
2018-09-05T16:03:48.460Z,89.60
2018-09-05T16:06:16.903Z,89.70
2018-09-05T16:08:45.268Z,89.20
2018-09-05T16:11:13.700Z,88.60
2018-09-05T16:13:42.096Z,89.80
2018-09-05T16:16:10.622Z,89.30
2018-09-05T16:18:39.300Z,90.00
2018-09-05T16:21:07.785Z,89.40
2018-09-05T16:23:36.364Z,88.60
2018-09-05T16:26:04.795Z,89.30
2018-09-05T16:28:33.225Z,89.20
2018-09-05T16:31:01.717Z,88.90
2018-09-05T16:33:30.110Z,89.70
2018-09-05T16:35:58.531Z,88.60
2018-09-05T16:38:26.928Z,88.90
2018-09-05T16:40:55.296Z,88.60
2018-09-05T16:43:23.750Z,88.50
2018-09-05T16:45:52.224Z,89.80
2018-09-05T16:48:20.620Z,89.30
2018-09-05T16:50:49.068Z,89.10
2018-09-05T16:53:17.493Z,88.80
2018-09-05T16:55:45.967Z,88.40
2018-09-05T16:58:14.411Z,89.80
2018-09-05T17:00:42.817Z,89.70
2018-09-05T17:03:11.238Z,90.00
2018-09-05T17:05:39.681Z,89.40
2018-09-05T17:08:08.121Z,89.20
2018-09-05T17:10:36.480Z,89.20
2018-09-05T17:13:05.164Z,89.90
2018-09-05T17:15:33.632Z,89.40
2018-09-05T17:18:02.110Z,90.30
2018-09-05T17:20:30.561Z,90.50
2018-09-05T17:22:59.065Z,90.30
2018-09-05T17:25:27.485Z,90.60
2018-09-05T17:27:55.978Z,90.80
2018-09-05T17:30:24.807Z,90.90
2018-09-05T17:32:53.455Z,90.60
2018-09-05T17:35:21.903Z,90.30
2018-09-05T17:37:50.302Z,90.60
2018-09-05T17:40:19.013Z,91.00
2018-09-05T17:42:47.513Z,90.60
2018-09-05T17:45:16.000Z,90.90
2018-09-05T17:47:44.780Z,90.50
2018-09-05T17:50:13.421Z,90.50
2018-09-05T17:52:41.932Z,90.80
2018-09-05T17:55:11.228Z,91.00
2018-09-05T17:57:39.969Z,91.30
2018-09-05T18:00:08.689Z,91.40
2018-09-05T18:02:37.723Z,91.50
2018-09-05T18:05:06.304Z,91.80
2018-09-05T18:07:34.710Z,92.20
2018-09-05T18:10:03.111Z,92.00
2018-09-05T18:12:31.482Z,92.10
2018-09-05T18:14:59.902Z,91.80
2018-09-05T18:17:28.301Z,92.20
2018-09-05T18:19:56.761Z,92.30
2018-09-05T18:22:25.113Z,92.30
2018-09-05T18:24:53.749Z,92.30
2018-09-05T18:27:22.106Z,92.50
2018-09-05T18:29:50.552Z,92.10
2018-09-05T18:32:18.953Z,92.40
2018-09-05T18:34:47.373Z,92.30
2018-09-05T18:37:15.748Z,92.00
2018-09-05T18:39:44.084Z,92.00
2018-09-05T18:42:12.505Z,92.10
2018-09-05T18:44:42.991Z,92.30
2018-09-05T18:47:11.995Z,92.40
2018-09-05T18:49:40.435Z,92.70
2018-09-05T18:52:08.962Z,92.60
2018-09-05T18:54:37.361Z,92.70
2018-09-05T18:57:06.113Z,92.80
2018-09-05T18:59:34.632Z,92.80
2018-09-05T19:02:03.156Z,92.60
2018-09-05T19:04:31.649Z,92.90
2018-09-05T19:07:00.302Z,93.00
2018-09-05T19:09:29.129Z,92.90
2018-09-05T19:11:57.693Z,92.90
2018-09-05T19:14:26.458Z,93.00
2018-09-05T19:16:55.411Z,93.20
2018-09-05T19:19:24.100Z,93.30
2018-09-05T19:21:52.589Z,93.50
2018-09-05T19:24:21.054Z,94.00
2018-09-05T19:26:49.415Z,94.50
2018-09-05T19:29:17.853Z,94.80
2018-09-05T19:31:46.866Z,95.00
2018-09-05T19:34:15.374Z,95.30
2018-09-05T19:36:43.838Z,95.60
2018-09-05T19:39:12.349Z,96.10
2018-09-05T19:41:40.754Z,95.80
2018-09-05T19:44:09.233Z,96.10
2018-09-05T19:46:37.686Z,95.80
2018-09-05T19:49:06.116Z,95.60
2018-09-05T19:51:34.552Z,95.60
2018-09-05T19:54:02.948Z,96.10
2018-09-05T19:56:31.353Z,96.30
2018-09-05T19:59:00.086Z,96.20
2018-09-05T20:01:28.565Z,96.10
2018-09-05T20:03:57.037Z,96.00
2018-09-05T20:06:25.359Z,96.30
2018-09-05T20:08:53.893Z,96.30
2018-09-05T20:11:22.304Z,96.30
2018-09-05T20:13:50.724Z,96.50
2018-09-05T20:16:19.107Z,96.80
2018-09-05T20:18:47.591Z,96.60
2018-09-05T20:21:16.012Z,96.50
2018-09-05T20:23:44.499Z,97.00
2018-09-05T20:26:12.930Z,96.70
2018-09-05T20:28:41.374Z,97.00
2018-09-05T20:31:09.854Z,97.30
2018-09-05T20:33:38.307Z,97.00
2018-09-05T20:36:07.705Z,97.00
2018-09-05T20:38:36.204Z,96.80
2018-09-05T20:41:04.671Z,97.00
2018-09-05T20:43:33.134Z,97.30
2018-09-05T20:46:01.891Z,97.40
2018-09-05T20:48:30.243Z,97.20
2018-09-05T20:50:58.645Z,97.20
2018-09-05T20:53:27.033Z,97.60
2018-09-05T20:55:55.579Z,97.60
2018-09-05T20:58:24.023Z,97.80
2018-09-05T21:00:52.795Z,97.70
2018-09-05T21:03:21.152Z,97.90
2018-09-05T21:05:49.603Z,98.00
2018-09-05T21:08:17.963Z,98.40
2018-09-05T21:10:46.436Z,97.90
2018-09-05T21:13:14.805Z,98.10
2018-09-05T21:15:43.581Z,97.90
2018-09-05T21:18:12.085Z,97.90
2018-09-05T21:20:40.376Z,97.80
2018-09-05T21:23:08.822Z,97.80
2018-09-05T21:25:37.230Z,97.70
2018-09-05T21:28:05.618Z,97.60
2018-09-05T21:30:33.987Z,97.80
2018-09-05T21:33:02.685Z,97.90
2018-09-05T21:35:31.785Z,97.80
2018-09-05T21:38:00.502Z,98.00
2018-09-05T21:40:28.925Z,98.20
2018-09-05T21:42:57.289Z,98.00
2018-09-05T21:45:26.036Z,98.30
2018-09-05T21:47:54.649Z,98.40
2018-09-05T21:50:23.011Z,98.10
2018-09-05T21:52:51.506Z,97.80
2018-09-05T21:55:19.840Z,97.90
2018-09-05T21:57:48.278Z,97.80
2018-09-05T22:00:16.630Z,98.00
2018-09-05T22:02:45.099Z,98.20
2018-09-05T22:05:13.595Z,98.50
2018-09-05T22:07:42.101Z,98.70
2018-09-05T22:10:10.553Z,99.20
2018-09-05T22:12:39.199Z,99.40
2018-09-05T22:15:07.949Z,99.30
2018-09-05T22:17:36.638Z,99.60
2018-09-05T22:20:05.132Z,99.70
2018-09-05T22:22:33.804Z,99.90
2018-09-05T22:25:02.181Z,99.90
2018-09-05T22:27:30.557Z,99.90
2018-09-05T22:29:58.951Z,99.90
2018-09-05T22:32:27.391Z,99.90
2018-09-05T22:34:56.190Z,99.90
2018-09-05T22:37:24.964Z,99.90
2018-09-05T22:39:53.830Z,99.90
2018-09-05T22:42:22.280Z,99.90
2018-09-05T22:45:02.057Z,99.90
2018-09-05T22:47:45.250Z,99.90
2018-09-05T22:50:29.789Z,99.90
2018-09-05T22:53:14.982Z,99.90
2018-09-05T22:56:00.274Z,99.90
2018-09-05T22:58:48.822Z,99.90
2018-09-05T23:02:35.613Z,99.90
2018-09-05T23:05:15.231Z,99.90
2018-09-05T23:07:59.750Z,99.90
2018-09-05T23:10:39.340Z,99.90
2018-09-05T23:13:18.892Z,99.90
2018-09-05T23:15:58.651Z,99.90
2018-09-05T23:19:37.876Z,99.90
2018-09-05T23:22:06.316Z,99.90
2018-09-05T23:24:34.740Z,99.90
2018-09-05T23:27:03.201Z,99.90
2018-09-05T23:29:31.572Z,99.90
2018-09-05T23:32:00.082Z,99.90
2018-09-05T23:34:28.461Z,99.90
2018-09-05T23:36:58.107Z,99.90
2018-09-05T23:39:26.588Z,99.90
2018-09-05T23:41:55.008Z,99.90
2018-09-05T23:44:23.453Z,99.90
2018-09-05T23:46:51.890Z,99.90
2018-09-05T23:49:20.292Z,99.90
2018-09-05T23:51:48.697Z,99.90
2018-09-05T23:54:17.060Z,99.90
2018-09-05T23:56:45.543Z,99.90
2018-09-05T23:59:13.904Z,99.90
